sensor_id;sensor_type;location;lat;lon;timestamp;P1;durP1;ratioP1;P2;durP2;ratioP2
57325;SDS011;43161;50.950;18.224;2022-12-07T00:02:10;26.30;;;10.30;;
57325;SDS011;43161;50.950;18.224;2022-12-07T00:05:48;24.10;;;10.50;;
57325;SDS011;43161;50.950;18.224;2022-12-07T00:09:26;22.20;;;9.00;;
57325;SDS011;43161;50.950;18.224;2022-12-07T00:13:03;24.70;;;10.60;;
57325;SDS011;43161;50.950;18.224;2022-12-07T00:16:42;25.80;;;9.90;;
57325;SDS011;43161;50.950;18.224;2022-12-07T00:20:19;22.20;;;10.50;;
57325;SDS011;43161;50.950;18.224;2022-12-07T00:23:57;20.00;;;9.10;;
57325;SDS011;43161;50.950;18.224;2022-12-07T00:27:34;20.80;;;9.30;;
57325;SDS011;43161;50.950;18.224;2022-12-07T00:31:12;22.30;;;9.20;;
57325;SDS011;43161;50.950;18.224;2022-12-07T00:34:49;19.60;;;8.60;;
57325;SDS011;43161;50.950;18.224;2022-12-07T00:38:31;23.10;;;9.70;;
57325;SDS011;43161;50.950;18.224;2022-12-07T00:42:09;25.00;;;10.00;;
57325;SDS011;43161;50.950;18.224;2022-12-07T00:45:46;26.10;;;11.50;;
57325;SDS011;43161;50.950;18.224;2022-12-07T00:49:24;26.90;;;10.80;;
57325;SDS011;43161;50.950;18.224;2022-12-07T00:53:02;30.90;;;14.60;;
57325;SDS011;43161;50.950;18.224;2022-12-07T00:56:39;25.10;;;10.40;;
57325;SDS011;43161;50.950;18.224;2022-12-07T01:00:17;27.80;;;11.60;;
57325;SDS011;43161;50.950;18.224;2022-12-07T01:03:55;27.90;;;12.40;;
57325;SDS011;43161;50.950;18.224;2022-12-07T01:07:32;24.20;;;11.00;;
57325;SDS011;43161;50.950;18.224;2022-12-07T01:11:12;26.70;;;12.80;;
57325;SDS011;43161;50.950;18.224;2022-12-07T01:14:49;24.80;;;11.70;;
57325;SDS011;43161;50.950;18.224;2022-12-07T01:18:28;25.50;;;10.20;;
57325;SDS011;43161;50.950;18.224;2022-12-07T01:22:05;26.80;;;12.50;;
57325;SDS011;43161;50.950;18.224;2022-12-07T01:25:42;28.10;;;12.60;;
57325;SDS011;43161;50.950;18.224;2022-12-07T01:29:20;27.10;;;12.40;;
57325;SDS011;43161;50.950;18.224;2022-12-07T01:32:58;29.10;;;13.20;;
57325;SDS011;43161;50.950;18.224;2022-12-07T01:36:36;28.50;;;12.40;;
57325;SDS011;43161;50.950;18.224;2022-12-07T01:40:13;26.80;;;11.50;;
57325;SDS011;43161;50.950;18.224;2022-12-07T01:48:08;26.40;;;11.90;;
57325;SDS011;43161;50.950;18.224;2022-12-07T01:51:46;28.70;;;12.80;;
57325;SDS011;43161;50.950;18.224;2022-12-07T01:55:23;30.10;;;14.50;;
57325;SDS011;43161;50.950;18.224;2022-12-07T01:59:01;24.10;;;10.80;;
57325;SDS011;43161;50.950;18.224;2022-12-07T02:06:40;29.80;;;14.70;;
57325;SDS011;43161;50.950;18.224;2022-12-07T02:10:19;27.40;;;12.50;;
57325;SDS011;43161;50.950;18.224;2022-12-07T02:13:56;28.00;;;12.20;;
57325;SDS011;43161;50.950;18.224;2022-12-07T02:29:54;28.10;;;14.40;;
57325;SDS011;43161;50.950;18.224;2022-12-07T02:33:43;26.40;;;14.20;;
57325;SDS011;43161;50.950;18.224;2022-12-07T02:37:27;26.10;;;12.90;;
57325;SDS011;43161;50.950;18.224;2022-12-07T02:41:12;24.10;;;9.70;;
57325;SDS011;43161;50.950;18.224;2022-12-07T02:44:51;26.70;;;12.90;;
57325;SDS011;43161;50.950;18.224;2022-12-07T02:48:29;28.30;;;13.70;;
57325;SDS011;43161;50.950;18.224;2022-12-07T02:52:07;24.20;;;10.40;;
57325;SDS011;43161;50.950;18.224;2022-12-07T02:55:44;23.30;;;11.00;;
57325;SDS011;43161;50.950;18.224;2022-12-07T03:03:43;26.20;;;13.50;;
57325;SDS011;43161;50.950;18.224;2022-12-07T03:07:04;23.90;;;10.60;;
57325;SDS011;43161;50.950;18.224;2022-12-07T03:18:46;22.10;;;9.60;;
57325;SDS011;43161;50.950;18.224;2022-12-07T03:22:42;21.10;;;9.60;;
57325;SDS011;43161;50.950;18.224;2022-12-07T03:26:19;23.20;;;12.10;;
57325;SDS011;43161;50.950;18.224;2022-12-07T03:29:59;26.20;;;12.30;;
57325;SDS011;43161;50.950;18.224;2022-12-07T03:33:43;23.30;;;9.60;;
57325;SDS011;43161;50.950;18.224;2022-12-07T03:37:41;26.40;;;15.20;;
57325;SDS011;43161;50.950;18.224;2022-12-07T03:41:24;25.60;;;12.10;;
57325;SDS011;43161;50.950;18.224;2022-12-07T03:45:02;24.10;;;10.60;;
57325;SDS011;43161;50.950;18.224;2022-12-07T03:48:53;23.60;;;11.90;;
57325;SDS011;43161;50.950;18.224;2022-12-07T03:52:59;23.50;;;11.60;;
57325;SDS011;43161;50.950;18.224;2022-12-07T03:56:57;25.40;;;13.30;;
57325;SDS011;43161;50.950;18.224;2022-12-07T04:00:36;27.70;;;14.10;;
57325;SDS011;43161;50.950;18.224;2022-12-07T04:04:12;24.00;;;11.20;;
57325;SDS011;43161;50.950;18.224;2022-12-07T04:07:50;24.30;;;11.90;;
57325;SDS011;43161;50.950;18.224;2022-12-07T04:11:27;26.50;;;15.20;;
57325;SDS011;43161;50.950;18.224;2022-12-07T04:15:05;24.70;;;12.60;;
57325;SDS011;43161;50.950;18.224;2022-12-07T04:18:43;22.80;;;12.00;;
57325;SDS011;43161;50.950;18.224;2022-12-07T04:22:20;23.90;;;12.90;;
57325;SDS011;43161;50.950;18.224;2022-12-07T04:25:58;23.10;;;10.50;;
57325;SDS011;43161;50.950;18.224;2022-12-07T04:29:36;26.20;;;15.30;;
57325;SDS011;43161;50.950;18.224;2022-12-07T04:33:13;21.30;;;10.10;;
57325;SDS011;43161;50.950;18.224;2022-12-07T04:36:51;22.20;;;9.70;;
57325;SDS011;43161;50.950;18.224;2022-12-07T04:40:29;18.40;;;9.00;;
57325;SDS011;43161;50.950;18.224;2022-12-07T04:44:06;18.90;;;9.70;;
57325;SDS011;43161;50.950;18.224;2022-12-07T04:47:44;23.60;;;12.50;;
57325;SDS011;43161;50.950;18.224;2022-12-07T04:51:23;18.80;;;8.40;;
57325;SDS011;43161;50.950;18.224;2022-12-07T04:55:00;19.20;;;9.50;;
57325;SDS011;43161;50.950;18.224;2022-12-07T04:58:38;17.70;;;7.60;;
57325;SDS011;43161;50.950;18.224;2022-12-07T05:02:35;16.40;;;7.70;;
57325;SDS011;43161;50.950;18.224;2022-12-07T05:05:53;15.10;;;6.30;;
57325;SDS011;43161;50.950;18.224;2022-12-07T05:09:31;14.70;;;6.10;;
57325;SDS011;43161;50.950;18.224;2022-12-07T05:13:08;15.90;;;6.90;;
57325;SDS011;43161;50.950;18.224;2022-12-07T05:16:48;15.10;;;6.50;;
57325;SDS011;43161;50.950;18.224;2022-12-07T05:20:25;14.30;;;5.90;;
57325;SDS011;43161;50.950;18.224;2022-12-07T05:24:03;15.10;;;5.60;;
57325;SDS011;43161;50.950;18.224;2022-12-07T05:27:41;12.80;;;4.80;;
57325;SDS011;43161;50.950;18.224;2022-12-07T05:31:18;13.30;;;5.40;;
57325;SDS011;43161;50.950;18.224;2022-12-07T05:34:56;13.10;;;6.10;;
57325;SDS011;43161;50.950;18.224;2022-12-07T05:38:34;12.60;;;5.30;;
57325;SDS011;43161;50.950;18.224;2022-12-07T05:42:12;11.20;;;4.10;;
57325;SDS011;43161;50.950;18.224;2022-12-07T05:45:49;13.40;;;5.50;;
57325;SDS011;43161;50.950;18.224;2022-12-07T05:49:27;13.20;;;4.90;;
57325;SDS011;43161;50.950;18.224;2022-12-07T05:53:04;11.30;;;4.40;;
57325;SDS011;43161;50.950;18.224;2022-12-07T05:56:42;10.60;;;4.20;;
57325;SDS011;43161;50.950;18.224;2022-12-07T06:00:20;11.60;;;4.80;;
57325;SDS011;43161;50.950;18.224;2022-12-07T06:03:58;12.50;;;4.60;;
57325;SDS011;43161;50.950;18.224;2022-12-07T06:07:35;14.00;;;5.90;;
57325;SDS011;43161;50.950;18.224;2022-12-07T06:11:13;15.20;;;6.80;;
57325;SDS011;43161;50.950;18.224;2022-12-07T06:15:07;12.70;;;4.80;;
57325;SDS011;43161;50.950;18.224;2022-12-07T06:18:45;14.30;;;6.50;;
57325;SDS011;43161;50.950;18.224;2022-12-07T06:22:22;13.50;;;5.50;;
57325;SDS011;43161;50.950;18.224;2022-12-07T06:26:00;14.30;;;6.20;;
57325;SDS011;43161;50.950;18.224;2022-12-07T06:29:38;13.20;;;6.00;;
57325;SDS011;43161;50.950;18.224;2022-12-07T06:33:15;14.70;;;6.70;;
57325;SDS011;43161;50.950;18.224;2022-12-07T06:36:53;17.20;;;8.80;;
57325;SDS011;43161;50.950;18.224;2022-12-07T06:40:31;13.40;;;5.50;;
57325;SDS011;43161;50.950;18.224;2022-12-07T06:44:08;15.30;;;6.40;;
57325;SDS011;43161;50.950;18.224;2022-12-07T06:47:46;19.70;;;8.30;;
57325;SDS011;43161;50.950;18.224;2022-12-07T06:51:24;13.90;;;5.60;;
57325;SDS011;43161;50.950;18.224;2022-12-07T06:55:01;17.00;;;6.70;;
57325;SDS011;43161;50.950;18.224;2022-12-07T06:58:39;20.70;;;7.50;;
57325;SDS011;43161;50.950;18.224;2022-12-07T07:02:17;26.50;;;10.90;;
57325;SDS011;43161;50.950;18.224;2022-12-07T07:05:54;109.90;;;35.90;;
57325;SDS011;43161;50.950;18.224;2022-12-07T07:09:32;35.60;;;19.30;;
57325;SDS011;43161;50.950;18.224;2022-12-07T07:13:10;63.20;;;26.70;;
57325;SDS011;43161;50.950;18.224;2022-12-07T07:16:47;31.60;;;13.60;;
57325;SDS011;43161;50.950;18.224;2022-12-07T07:20:25;35.70;;;16.60;;
57325;SDS011;43161;50.950;18.224;2022-12-07T07:24:03;23.80;;;11.30;;
57325;SDS011;43161;50.950;18.224;2022-12-07T07:27:40;18.60;;;7.90;;
57325;SDS011;43161;50.950;18.224;2022-12-07T07:31:18;18.80;;;7.80;;
57325;SDS011;43161;50.950;18.224;2022-12-07T07:34:56;20.00;;;10.00;;
57325;SDS011;43161;50.950;18.224;2022-12-07T07:38:34;19.90;;;7.70;;
57325;SDS011;43161;50.950;18.224;2022-12-07T07:42:11;22.40;;;9.70;;
57325;SDS011;43161;50.950;18.224;2022-12-07T07:45:49;22.00;;;8.30;;
57325;SDS011;43161;50.950;18.224;2022-12-07T07:49:26;23.10;;;9.20;;
57325;SDS011;43161;50.950;18.224;2022-12-07T07:53:04;23.40;;;10.50;;
57325;SDS011;43161;50.950;18.224;2022-12-07T07:56:42;24.80;;;10.70;;
57325;SDS011;43161;50.950;18.224;2022-12-07T08:00:20;24.30;;;10.40;;
57325;SDS011;43161;50.950;18.224;2022-12-07T08:03:57;25.40;;;9.80;;
57325;SDS011;43161;50.950;18.224;2022-12-07T08:07:35;29.00;;;11.20;;
57325;SDS011;43161;50.950;18.224;2022-12-07T08:11:13;26.70;;;10.80;;
57325;SDS011;43161;50.950;18.224;2022-12-07T08:14:50;32.40;;;13.70;;
57325;SDS011;43161;50.950;18.224;2022-12-07T08:18:28;28.40;;;11.70;;
57325;SDS011;43161;50.950;18.224;2022-12-07T08:22:06;27.90;;;10.00;;
57325;SDS011;43161;50.950;18.224;2022-12-07T08:25:43;29.10;;;10.90;;
57325;SDS011;43161;50.950;18.224;2022-12-07T08:29:21;31.90;;;12.90;;
57325;SDS011;43161;50.950;18.224;2022-12-07T08:32:59;31.10;;;11.10;;
57325;SDS011;43161;50.950;18.224;2022-12-07T08:36:37;38.50;;;17.80;;
57325;SDS011;43161;50.950;18.224;2022-12-07T08:40:14;31.70;;;11.90;;
57325;SDS011;43161;50.950;18.224;2022-12-07T08:43:52;40.00;;;18.30;;
57325;SDS011;43161;50.950;18.224;2022-12-07T08:47:29;41.00;;;17.80;;
57325;SDS011;43161;50.950;18.224;2022-12-07T08:51:07;53.40;;;23.30;;
57325;SDS011;43161;50.950;18.224;2022-12-07T08:54:45;43.70;;;18.50;;
57325;SDS011;43161;50.950;18.224;2022-12-07T08:58:22;53.10;;;25.10;;
57325;SDS011;43161;50.950;18.224;2022-12-07T09:02:00;78.40;;;34.70;;
57325;SDS011;43161;50.950;18.224;2022-12-07T09:05:38;65.20;;;27.00;;
57325;SDS011;43161;50.950;18.224;2022-12-07T09:09:15;43.30;;;19.80;;
57325;SDS011;43161;50.950;18.224;2022-12-07T09:12:53;38.90;;;14.80;;
57325;SDS011;43161;50.950;18.224;2022-12-07T09:16:31;54.80;;;20.90;;
57325;SDS011;43161;50.950;18.224;2022-12-07T09:20:09;41.80;;;19.00;;
57325;SDS011;43161;50.950;18.224;2022-12-07T09:23:46;35.50;;;15.60;;
57325;SDS011;43161;50.950;18.224;2022-12-07T09:27:24;33.40;;;13.10;;
57325;SDS011;43161;50.950;18.224;2022-12-07T09:31:02;33.30;;;14.00;;
57325;SDS011;43161;50.950;18.224;2022-12-07T09:34:39;32.50;;;13.10;;
57325;SDS011;43161;50.950;18.224;2022-12-07T09:38:17;32.20;;;11.80;;
57325;SDS011;43161;50.950;18.224;2022-12-07T09:41:54;34.20;;;14.90;;
57325;SDS011;43161;50.950;18.224;2022-12-07T09:45:34;28.70;;;11.00;;
57325;SDS011;43161;50.950;18.224;2022-12-07T09:49:15;27.90;;;10.70;;
57325;SDS011;43161;50.950;18.224;2022-12-07T09:52:52;30.60;;;12.30;;
57325;SDS011;43161;50.950;18.224;2022-12-07T09:56:30;29.10;;;12.60;;
57325;SDS011;43161;50.950;18.224;2022-12-07T10:00:15;25.40;;;10.40;;
57325;SDS011;43161;50.950;18.224;2022-12-07T10:03:53;30.30;;;12.40;;
57325;SDS011;43161;50.950;18.224;2022-12-07T10:07:30;27.20;;;12.40;;
57325;SDS011;43161;50.950;18.224;2022-12-07T10:11:07;24.50;;;10.20;;
57325;SDS011;43161;50.950;18.224;2022-12-07T10:18:41;24.90;;;10.50;;
57325;SDS011;43161;50.950;18.224;2022-12-07T10:22:19;24.20;;;12.00;;
57325;SDS011;43161;50.950;18.224;2022-12-07T10:25:57;22.00;;;8.40;;
57325;SDS011;43161;50.950;18.224;2022-12-07T10:29:38;24.00;;;10.40;;
57325;SDS011;43161;50.950;18.224;2022-12-07T10:37:27;29.00;;;13.90;;
57325;SDS011;43161;50.950;18.224;2022-12-07T10:41:05;33.50;;;17.00;;
57325;SDS011;43161;50.950;18.224;2022-12-07T10:44:43;29.10;;;12.60;;
57325;SDS011;43161;50.950;18.224;2022-12-07T10:48:23;28.50;;;14.40;;
57325;SDS011;43161;50.950;18.224;2022-12-07T11:00:15;34.80;;;15.50;;
57325;SDS011;43161;50.950;18.224;2022-12-07T11:04:06;33.90;;;15.20;;
57325;SDS011;43161;50.950;18.224;2022-12-07T11:07:49;30.20;;;15.10;;
57325;SDS011;43161;50.950;18.224;2022-12-07T11:11:33;30.40;;;11.90;;
57325;SDS011;43161;50.950;18.224;2022-12-07T11:19:10;33.40;;;16.20;;
57325;SDS011;43161;50.950;18.224;2022-12-07T11:27:09;28.20;;;12.60;;
57325;SDS011;43161;50.950;18.224;2022-12-07T11:38:41;29.10;;;13.70;;
57325;SDS011;43161;50.950;18.224;2022-12-07T11:42:21;28.20;;;14.80;;
57325;SDS011;43161;50.950;18.224;2022-12-07T11:46:02;26.50;;;12.80;;
57325;SDS011;43161;50.950;18.224;2022-12-07T11:49:40;27.50;;;12.30;;
57325;SDS011;43161;50.950;18.224;2022-12-07T11:57:11;28.60;;;15.20;;
57325;SDS011;43161;50.950;18.224;2022-12-07T12:00:49;24.70;;;10.90;;
57325;SDS011;43161;50.950;18.224;2022-12-07T12:04:34;28.20;;;13.40;;
57325;SDS011;43161;50.950;18.224;2022-12-07T12:08:22;28.10;;;13.40;;
57325;SDS011;43161;50.950;18.224;2022-12-07T12:12:14;24.50;;;13.30;;
57325;SDS011;43161;50.950;18.224;2022-12-07T12:24:14;19.40;;;10.70;;
57325;SDS011;43161;50.950;18.224;2022-12-07T12:27:52;19.60;;;11.70;;
57325;SDS011;43161;50.950;18.224;2022-12-07T12:31:32;18.00;;;10.20;;
57325;SDS011;43161;50.950;18.224;2022-12-07T12:39:11;19.60;;;10.70;;
57325;SDS011;43161;50.950;18.224;2022-12-07T12:42:52;19.00;;;10.50;;
57325;SDS011;43161;50.950;18.224;2022-12-07T12:50:17;19.80;;;9.80;;
57325;SDS011;43161;50.950;18.224;2022-12-07T13:29:59;18.30;;;11.00;;
57325;SDS011;43161;50.950;18.224;2022-12-07T13:33:36;15.10;;;7.60;;
57325;SDS011;43161;50.950;18.224;2022-12-07T13:44:49;18.90;;;8.40;;
57325;SDS011;43161;50.950;18.224;2022-12-07T13:48:35;29.20;;;15.80;;
57325;SDS011;43161;50.950;18.224;2022-12-07T13:52:18;18.40;;;10.80;;
57325;SDS011;43161;50.950;18.224;2022-12-07T13:55:55;18.50;;;11.00;;
57325;SDS011;43161;50.950;18.224;2022-12-07T13:59:32;25.10;;;14.50;;
57325;SDS011;43161;50.950;18.224;2022-12-07T14:06:49;19.50;;;12.00;;
57325;SDS011;43161;50.950;18.224;2022-12-07T14:10:30;22.20;;;12.80;;
57325;SDS011;43161;50.950;18.224;2022-12-07T14:14:11;26.40;;;14.80;;
57325;SDS011;43161;50.950;18.224;2022-12-07T14:17:50;24.50;;;13.80;;
57325;SDS011;43161;50.950;18.224;2022-12-07T14:21:30;20.80;;;12.30;;
57325;SDS011;43161;50.950;18.224;2022-12-07T14:25:15;18.40;;;11.40;;
57325;SDS011;43161;50.950;18.224;2022-12-07T14:29:17;21.90;;;11.00;;
57325;SDS011;43161;50.950;18.224;2022-12-07T14:33:07;20.80;;;12.00;;
57325;SDS011;43161;50.950;18.224;2022-12-07T14:36:44;17.20;;;9.80;;
57325;SDS011;43161;50.950;18.224;2022-12-07T14:40:23;20.50;;;11.70;;
57325;SDS011;43161;50.950;18.224;2022-12-07T14:44:02;23.70;;;14.10;;
57325;SDS011;43161;50.950;18.224;2022-12-07T14:47:40;22.60;;;11.80;;
57325;SDS011;43161;50.950;18.224;2022-12-07T14:51:17;20.30;;;11.30;;
57325;SDS011;43161;50.950;18.224;2022-12-07T14:54:55;20.60;;;11.20;;
57325;SDS011;43161;50.950;18.224;2022-12-07T14:58:33;21.90;;;12.10;;
57325;SDS011;43161;50.950;18.224;2022-12-07T15:02:14;23.50;;;13.60;;
57325;SDS011;43161;50.950;18.224;2022-12-07T15:05:50;28.50;;;17.60;;
57325;SDS011;43161;50.950;18.224;2022-12-07T15:09:28;111.70;;;60.70;;
57325;SDS011;43161;50.950;18.224;2022-12-07T15:13:06;63.50;;;51.20;;
57325;SDS011;43161;50.950;18.224;2022-12-07T15:17:00;21.90;;;13.00;;
57325;SDS011;43161;50.950;18.224;2022-12-07T15:20:38;22.70;;;13.00;;
57325;SDS011;43161;50.950;18.224;2022-12-07T15:24:15;20.20;;;11.60;;
57325;SDS011;43161;50.950;18.224;2022-12-07T15:27:53;21.20;;;11.00;;
57325;SDS011;43161;50.950;18.224;2022-12-07T15:31:31;19.10;;;11.10;;
57325;SDS011;43161;50.950;18.224;2022-12-07T15:35:08;20.10;;;11.70;;
57325;SDS011;43161;50.950;18.224;2022-12-07T15:38:46;19.10;;;11.10;;
57325;SDS011;43161;50.950;18.224;2022-12-07T15:42:24;24.70;;;13.20;;
57325;SDS011;43161;50.950;18.224;2022-12-07T15:46:01;25.70;;;13.90;;
57325;SDS011;43161;50.950;18.224;2022-12-07T15:49:39;24.90;;;13.30;;
57325;SDS011;43161;50.950;18.224;2022-12-07T15:53:17;21.80;;;13.40;;
57325;SDS011;43161;50.950;18.224;2022-12-07T15:56:55;103.20;;;46.40;;
57325;SDS011;43161;50.950;18.224;2022-12-07T16:00:32;53.80;;;27.00;;
57325;SDS011;43161;50.950;18.224;2022-12-07T16:04:10;26.70;;;14.70;;
57325;SDS011;43161;50.950;18.224;2022-12-07T16:07:47;23.70;;;13.00;;
57325;SDS011;43161;50.950;18.224;2022-12-07T16:11:25;21.30;;;12.70;;
57325;SDS011;43161;50.950;18.224;2022-12-07T16:15:03;22.90;;;13.40;;
57325;SDS011;43161;50.950;18.224;2022-12-07T16:18:41;23.70;;;13.80;;
57325;SDS011;43161;50.950;18.224;2022-12-07T16:22:18;22.90;;;13.50;;
57325;SDS011;43161;50.950;18.224;2022-12-07T16:26:03;23.70;;;13.40;;
57325;SDS011;43161;50.950;18.224;2022-12-07T16:29:42;24.70;;;10.60;;
57325;SDS011;43161;50.950;18.224;2022-12-07T16:33:19;24.60;;;12.50;;
57325;SDS011;43161;50.950;18.224;2022-12-07T16:36:57;37.50;;;18.00;;
57325;SDS011;43161;50.950;18.224;2022-12-07T16:40:35;29.10;;;16.00;;
57325;SDS011;43161;50.950;18.224;2022-12-07T16:44:13;43.20;;;21.80;;
57325;SDS011;43161;50.950;18.224;2022-12-07T16:47:50;35.60;;;23.10;;
57325;SDS011;43161;50.950;18.224;2022-12-07T16:51:28;40.10;;;23.30;;
57325;SDS011;43161;50.950;18.224;2022-12-07T16:55:06;49.30;;;25.90;;
57325;SDS011;43161;50.950;18.224;2022-12-07T16:58:43;110.00;;;59.40;;
57325;SDS011;43161;50.950;18.224;2022-12-07T17:02:21;290.90;;;109.90;;
57325;SDS011;43161;50.950;18.224;2022-12-07T17:05:59;246.80;;;90.50;;
57325;SDS011;43161;50.950;18.224;2022-12-07T17:09:36;135.40;;;55.20;;
57325;SDS011;43161;50.950;18.224;2022-12-07T17:13:14;112.50;;;46.40;;
57325;SDS011;43161;50.950;18.224;2022-12-07T17:17:08;154.10;;;63.50;;
57325;SDS011;43161;50.950;18.224;2022-12-07T17:20:46;137.60;;;56.30;;
57325;SDS011;43161;50.950;18.224;2022-12-07T17:24:24;150.50;;;59.20;;
57325;SDS011;43161;50.950;18.224;2022-12-07T17:28:01;282.40;;;93.80;;
57325;SDS011;43161;50.950;18.224;2022-12-07T17:31:39;293.40;;;86.20;;
57325;SDS011;43161;50.950;18.224;2022-12-07T17:35:17;289.30;;;90.20;;
57325;SDS011;43161;50.950;18.224;2022-12-07T17:38:54;122.00;;;45.30;;
57325;SDS011;43161;50.950;18.224;2022-12-07T17:42:32;153.40;;;66.50;;
57325;SDS011;43161;50.950;18.224;2022-12-07T17:46:10;75.60;;;39.60;;
57325;SDS011;43161;50.950;18.224;2022-12-07T17:49:48;36.80;;;22.30;;
57325;SDS011;43161;50.950;18.224;2022-12-07T17:53:26;31.70;;;18.70;;
57325;SDS011;43161;50.950;18.224;2022-12-07T17:57:04;24.70;;;14.30;;
57325;SDS011;43161;50.950;18.224;2022-12-07T18:00:41;26.00;;;15.00;;
57325;SDS011;43161;50.950;18.224;2022-12-07T18:04:19;25.30;;;14.70;;
57325;SDS011;43161;50.950;18.224;2022-12-07T18:07:56;22.40;;;13.00;;
57325;SDS011;43161;50.950;18.224;2022-12-07T18:11:34;22.30;;;12.90;;
57325;SDS011;43161;50.950;18.224;2022-12-07T18:15:12;22.10;;;12.10;;
57325;SDS011;43161;50.950;18.224;2022-12-07T18:18:49;23.70;;;11.40;;
57325;SDS011;43161;50.950;18.224;2022-12-07T18:22:28;24.00;;;15.10;;
57325;SDS011;43161;50.950;18.224;2022-12-07T18:26:05;22.00;;;13.20;;
57325;SDS011;43161;50.950;18.224;2022-12-07T18:29:41;22.40;;;12.90;;
57325;SDS011;43161;50.950;18.224;2022-12-07T18:33:21;26.40;;;15.00;;
57325;SDS011;43161;50.950;18.224;2022-12-07T18:36:58;26.30;;;16.20;;
57325;SDS011;43161;50.950;18.224;2022-12-07T18:40:37;27.60;;;16.30;;
57325;SDS011;43161;50.950;18.224;2022-12-07T18:44:14;25.60;;;14.20;;
57325;SDS011;43161;50.950;18.224;2022-12-07T18:47:51;26.10;;;13.40;;
57325;SDS011;43161;50.950;18.224;2022-12-07T18:51:29;28.20;;;16.10;;
57325;SDS011;43161;50.950;18.224;2022-12-07T18:55:07;27.50;;;16.60;;
57325;SDS011;43161;50.950;18.224;2022-12-07T18:58:52;30.30;;;19.30;;
57325;SDS011;43161;50.950;18.224;2022-12-07T19:02:51;27.70;;;15.40;;
57325;SDS011;43161;50.950;18.224;2022-12-07T19:06:28;31.80;;;16.70;;
57325;SDS011;43161;50.950;18.224;2022-12-07T19:10:06;27.00;;;14.30;;
57325;SDS011;43161;50.950;18.224;2022-12-07T19:13:43;29.80;;;14.90;;
57325;SDS011;43161;50.950;18.224;2022-12-07T19:17:21;28.30;;;17.00;;
57325;SDS011;43161;50.950;18.224;2022-12-07T19:21:01;32.00;;;16.00;;
57325;SDS011;43161;50.950;18.224;2022-12-07T19:24:38;31.90;;;20.10;;
57325;SDS011;43161;50.950;18.224;2022-12-07T19:28:15;29.20;;;16.40;;
57325;SDS011;43161;50.950;18.224;2022-12-07T19:31:53;30.40;;;16.40;;
57325;SDS011;43161;50.950;18.224;2022-12-07T19:35:30;32.60;;;16.80;;
57325;SDS011;43161;50.950;18.224;2022-12-07T19:39:08;33.20;;;19.20;;
57325;SDS011;43161;50.950;18.224;2022-12-07T19:42:46;31.40;;;15.90;;
57325;SDS011;43161;50.950;18.224;2022-12-07T19:46:24;29.30;;;14.70;;
57325;SDS011;43161;50.950;18.224;2022-12-07T19:50:01;28.10;;;14.00;;
57325;SDS011;43161;50.950;18.224;2022-12-07T19:53:39;28.10;;;13.90;;
57325;SDS011;43161;50.950;18.224;2022-12-07T19:57:17;29.00;;;13.10;;
57325;SDS011;43161;50.950;18.224;2022-12-07T20:00:54;26.60;;;13.50;;
57325;SDS011;43161;50.950;18.224;2022-12-07T20:04:32;29.90;;;16.90;;
57325;SDS011;43161;50.950;18.224;2022-12-07T20:08:10;26.20;;;12.00;;
57325;SDS011;43161;50.950;18.224;2022-12-07T20:11:47;25.20;;;11.80;;
57325;SDS011;43161;50.950;18.224;2022-12-07T20:15:42;26.40;;;14.80;;
57325;SDS011;43161;50.950;18.224;2022-12-07T20:19:19;26.60;;;14.10;;
57325;SDS011;43161;50.950;18.224;2022-12-07T20:22:57;27.20;;;13.70;;
57325;SDS011;43161;50.950;18.224;2022-12-07T20:26:35;29.90;;;16.50;;
57325;SDS011;43161;50.950;18.224;2022-12-07T20:30:12;27.00;;;13.70;;
57325;SDS011;43161;50.950;18.224;2022-12-07T20:33:50;29.10;;;13.80;;
57325;SDS011;43161;50.950;18.224;2022-12-07T20:37:28;29.10;;;14.10;;
57325;SDS011;43161;50.950;18.224;2022-12-07T20:41:06;27.40;;;15.60;;
57325;SDS011;43161;50.950;18.224;2022-12-07T20:45:04;29.60;;;15.60;;
57325;SDS011;43161;50.950;18.224;2022-12-07T20:48:42;29.10;;;14.90;;
57325;SDS011;43161;50.950;18.224;2022-12-07T20:52:20;29.60;;;16.10;;
57325;SDS011;43161;50.950;18.224;2022-12-07T20:55:57;32.00;;;17.20;;
57325;SDS011;43161;50.950;18.224;2022-12-07T20:59:35;33.00;;;16.60;;
57325;SDS011;43161;50.950;18.224;2022-12-07T21:03:13;39.20;;;20.60;;
57325;SDS011;43161;50.950;18.224;2022-12-07T21:06:50;39.30;;;20.20;;
57325;SDS011;43161;50.950;18.224;2022-12-07T21:10:28;47.10;;;24.40;;
57325;SDS011;43161;50.950;18.224;2022-12-07T21:14:06;50.30;;;26.40;;
57325;SDS011;43161;50.950;18.224;2022-12-07T21:17:43;55.00;;;30.40;;
57325;SDS011;43161;50.950;18.224;2022-12-07T21:21:21;54.80;;;33.60;;
57325;SDS011;43161;50.950;18.224;2022-12-07T21:24:59;53.00;;;30.20;;
57325;SDS011;43161;50.950;18.224;2022-12-07T21:28:37;48.50;;;26.90;;
57325;SDS011;43161;50.950;18.224;2022-12-07T21:32:14;48.60;;;28.10;;
57325;SDS011;43161;50.950;18.224;2022-12-07T21:35:52;56.50;;;31.50;;
57325;SDS011;43161;50.950;18.224;2022-12-07T21:39:30;48.90;;;28.10;;
57325;SDS011;43161;50.950;18.224;2022-12-07T21:43:07;49.90;;;27.60;;
57325;SDS011;43161;50.950;18.224;2022-12-07T21:46:45;46.60;;;24.90;;
57325;SDS011;43161;50.950;18.224;2022-12-07T21:50:23;48.00;;;25.00;;
57325;SDS011;43161;50.950;18.224;2022-12-07T21:54:01;44.30;;;25.70;;
57325;SDS011;43161;50.950;18.224;2022-12-07T21:57:38;51.60;;;27.40;;
57325;SDS011;43161;50.950;18.224;2022-12-07T22:04:58;43.40;;;25.00;;
57325;SDS011;43161;50.950;18.224;2022-12-07T22:08:36;42.70;;;23.80;;
57325;SDS011;43161;50.950;18.224;2022-12-07T22:12:13;42.20;;;24.60;;
57325;SDS011;43161;50.950;18.224;2022-12-07T22:15:51;35.90;;;20.40;;
57325;SDS011;43161;50.950;18.224;2022-12-07T22:19:29;35.00;;;18.70;;
57325;SDS011;43161;50.950;18.224;2022-12-07T22:23:06;34.30;;;19.70;;
57325;SDS011;43161;50.950;18.224;2022-12-07T22:26:44;25.60;;;12.40;;
57325;SDS011;43161;50.950;18.224;2022-12-07T22:30:22;24.70;;;11.80;;
57325;SDS011;43161;50.950;18.224;2022-12-07T22:34:00;25.60;;;13.60;;
57325;SDS011;43161;50.950;18.224;2022-12-07T22:37:37;24.00;;;11.10;;
57325;SDS011;43161;50.950;18.224;2022-12-07T22:41:15;24.90;;;12.00;;
57325;SDS011;43161;50.950;18.224;2022-12-07T22:44:53;21.90;;;9.30;;
57325;SDS011;43161;50.950;18.224;2022-12-07T22:48:31;23.50;;;10.60;;
57325;SDS011;43161;50.950;18.224;2022-12-07T22:52:09;23.10;;;12.20;;
57325;SDS011;43161;50.950;18.224;2022-12-07T22:55:47;23.80;;;10.60;;
57325;SDS011;43161;50.950;18.224;2022-12-07T22:59:24;24.40;;;11.50;;
57325;SDS011;43161;50.950;18.224;2022-12-07T23:03:02;26.00;;;13.20;;
57325;SDS011;43161;50.950;18.224;2022-12-07T23:06:39;24.20;;;13.20;;
57325;SDS011;43161;50.950;18.224;2022-12-07T23:10:17;24.30;;;12.70;;
57325;SDS011;43161;50.950;18.224;2022-12-07T23:13:55;23.90;;;13.60;;
57325;SDS011;43161;50.950;18.224;2022-12-07T23:17:34;25.70;;;13.20;;
57325;SDS011;43161;50.950;18.224;2022-12-07T23:21:10;23.30;;;12.10;;